sensor_id;sensor_type;location;lat;lon;timestamp;temperature;humidity
6724;DHT22;3399;52.530;13.304;2022-09-09T00:02:19;15.20;99.90
6724;DHT22;3399;52.530;13.304;2022-09-09T00:07:42;15.20;99.90
6724;DHT22;3399;52.530;13.304;2022-09-09T00:10:23;15.20;99.90
6724;DHT22;3399;52.530;13.304;2022-09-09T00:13:18;15.20;99.90
6724;DHT22;3399;52.530;13.304;2022-09-09T00:18:51;15.10;99.90
6724;DHT22;3399;52.530;13.304;2022-09-09T00:21:18;15.10;99.90
6724;DHT22;3399;52.530;13.304;2022-09-09T00:23:55;15.10;99.90
6724;DHT22;3399;52.530;13.304;2022-09-09T00:26:33;15.10;99.90
6724;DHT22;3399;52.530;13.304;2022-09-09T00:31:37;15.10;99.90
6724;DHT22;3399;52.530;13.304;2022-09-09T00:34:14;15.10;99.90
6724;DHT22;3399;52.530;13.304;2022-09-09T00:36:42;15.00;99.90
6724;DHT22;3399;52.530;13.304;2022-09-09T00:42:18;15.00;99.90
6724;DHT22;3399;52.530;13.304;2022-09-09T00:47:44;15.00;99.90
6724;DHT22;3399;52.530;13.304;2022-09-09T00:55:28;14.90;99.90
6724;DHT22;3399;52.530;13.304;2022-09-09T00:57:58;15.00;99.90
6724;DHT22;3399;52.530;13.304;2022-09-09T01:00:24;14.90;99.90
6724;DHT22;3399;52.530;13.304;2022-09-09T01:03:11;14.90;99.90
6724;DHT22;3399;52.530;13.304;2022-09-09T01:05:51;14.90;99.90
6724;DHT22;3399;52.530;13.304;2022-09-09T01:08:53;14.80;99.90
6724;DHT22;3399;52.530;13.304;2022-09-09T01:11:23;14.80;99.90
6724;DHT22;3399;52.530;13.304;2022-09-09T01:13:56;14.80;99.90
6724;DHT22;3399;52.530;13.304;2022-09-09T01:16:25;14.80;99.90
6724;DHT22;3399;52.530;13.304;2022-09-09T01:18:53;14.80;99.90
6724;DHT22;3399;52.530;13.304;2022-09-09T01:21:39;14.80;99.90
6724;DHT22;3399;52.530;13.304;2022-09-09T01:27:00;14.80;99.90
6724;DHT22;3399;52.530;13.304;2022-09-09T01:29:26;14.80;99.90
6724;DHT22;3399;52.530;13.304;2022-09-09T01:31:59;14.80;99.90
6724;DHT22;3399;52.530;13.304;2022-09-09T01:34:30;14.80;99.90
6724;DHT22;3399;52.530;13.304;2022-09-09T01:37:02;14.80;99.90
6724;DHT22;3399;52.530;13.304;2022-09-09T01:39:30;14.80;99.90
6724;DHT22;3399;52.530;13.304;2022-09-09T01:41:57;14.80;99.90
6724;DHT22;3399;52.530;13.304;2022-09-09T01:44:23;14.80;99.90
6724;DHT22;3399;52.530;13.304;2022-09-09T01:46:49;14.80;99.90
6724;DHT22;3399;52.530;13.304;2022-09-09T01:49:16;14.80;99.90
6724;DHT22;3399;52.530;13.304;2022-09-09T01:51:43;14.80;99.90
6724;DHT22;3399;52.530;13.304;2022-09-09T01:54:11;14.80;99.90
6724;DHT22;3399;52.530;13.304;2022-09-09T01:56:50;14.70;99.90
6724;DHT22;3399;52.530;13.304;2022-09-09T02:04:50;14.70;99.90
6724;DHT22;3399;52.530;13.304;2022-09-09T02:13:05;14.60;99.90
6724;DHT22;3399;52.530;13.304;2022-09-09T02:15:57;14.60;99.90
6724;DHT22;3399;52.530;13.304;2022-09-09T02:18:58;14.60;99.90
6724;DHT22;3399;52.530;13.304;2022-09-09T02:21:22;14.60;99.90
6724;DHT22;3399;52.530;13.304;2022-09-09T02:23:49;14.60;99.90
6724;DHT22;3399;52.530;13.304;2022-09-09T02:26:17;14.50;99.90
6724;DHT22;3399;52.530;13.304;2022-09-09T02:28:48;14.50;99.90
6724;DHT22;3399;52.530;13.304;2022-09-09T02:31:18;14.50;99.90
6724;DHT22;3399;52.530;13.304;2022-09-09T02:33:51;14.50;99.90
6724;DHT22;3399;52.530;13.304;2022-09-09T02:36:18;14.50;99.90
6724;DHT22;3399;52.530;13.304;2022-09-09T02:38:48;14.50;99.90
6724;DHT22;3399;52.530;13.304;2022-09-09T02:41:18;14.50;99.90
6724;DHT22;3399;52.530;13.304;2022-09-09T02:43:44;14.40;99.90
6724;DHT22;3399;52.530;13.304;2022-09-09T02:46:40;14.40;99.90
6724;DHT22;3399;52.530;13.304;2022-09-09T02:52:14;14.40;99.90
6724;DHT22;3399;52.530;13.304;2022-09-09T02:54:41;14.40;99.90
6724;DHT22;3399;52.530;13.304;2022-09-09T02:59:38;14.30;99.90
6724;DHT22;3399;52.530;13.304;2022-09-09T03:02:03;14.30;99.90
6724;DHT22;3399;52.530;13.304;2022-09-09T03:04:29;14.30;99.90
6724;DHT22;3399;52.530;13.304;2022-09-09T03:06:57;14.30;99.90
6724;DHT22;3399;52.530;13.304;2022-09-09T03:09:23;14.30;99.90
6724;DHT22;3399;52.530;13.304;2022-09-09T03:11:48;14.30;99.90
6724;DHT22;3399;52.530;13.304;2022-09-09T03:14:15;14.20;99.90
6724;DHT22;3399;52.530;13.304;2022-09-09T03:16:41;14.20;99.90
6724;DHT22;3399;52.530;13.304;2022-09-09T03:19:08;14.20;99.90
6724;DHT22;3399;52.530;13.304;2022-09-09T03:21:34;14.20;99.90
6724;DHT22;3399;52.530;13.304;2022-09-09T03:24:00;14.20;99.90
6724;DHT22;3399;52.530;13.304;2022-09-09T03:26:29;14.20;99.90
6724;DHT22;3399;52.530;13.304;2022-09-09T03:28:54;14.20;99.90
6724;DHT22;3399;52.530;13.304;2022-09-09T03:31:19;14.20;99.90
6724;DHT22;3399;52.530;13.304;2022-09-09T03:33:46;14.20;99.90
6724;DHT22;3399;52.530;13.304;2022-09-09T03:36:11;14.20;99.90
6724;DHT22;3399;52.530;13.304;2022-09-09T03:38:37;14.20;99.90
6724;DHT22;3399;52.530;13.304;2022-09-09T03:41:02;14.10;99.90
6724;DHT22;3399;52.530;13.304;2022-09-09T03:43:29;14.10;99.90
6724;DHT22;3399;52.530;13.304;2022-09-09T03:45:55;14.10;99.90
6724;DHT22;3399;52.530;13.304;2022-09-09T03:48:24;14.10;99.90
6724;DHT22;3399;52.530;13.304;2022-09-09T03:50:51;14.10;99.90
6724;DHT22;3399;52.530;13.304;2022-09-09T03:53:19;14.10;99.90
6724;DHT22;3399;52.530;13.304;2022-09-09T03:55:49;14.10;99.90
6724;DHT22;3399;52.530;13.304;2022-09-09T03:58:16;14.10;99.90
6724;DHT22;3399;52.530;13.304;2022-09-09T04:00:52;14.10;99.90
6724;DHT22;3399;52.530;13.304;2022-09-09T04:03:18;14.00;99.90
6724;DHT22;3399;52.530;13.304;2022-09-09T04:05:43;14.00;99.90
6724;DHT22;3399;52.530;13.304;2022-09-09T04:08:09;14.00;99.90
6724;DHT22;3399;52.530;13.304;2022-09-09T04:10:36;14.00;99.90
6724;DHT22;3399;52.530;13.304;2022-09-09T04:13:03;14.00;99.90
6724;DHT22;3399;52.530;13.304;2022-09-09T04:15:29;13.90;99.90
6724;DHT22;3399;52.530;13.304;2022-09-09T04:17:54;13.90;99.90
6724;DHT22;3399;52.530;13.304;2022-09-09T04:20:20;13.90;99.90
6724;DHT22;3399;52.530;13.304;2022-09-09T04:22:47;13.90;99.90
6724;DHT22;3399;52.530;13.304;2022-09-09T04:25:12;13.90;99.90
6724;DHT22;3399;52.530;13.304;2022-09-09T04:27:38;13.90;99.90
6724;DHT22;3399;52.530;13.304;2022-09-09T04:30:03;13.90;99.90
6724;DHT22;3399;52.530;13.304;2022-09-09T04:32:29;13.90;99.90
6724;DHT22;3399;52.530;13.304;2022-09-09T04:34:57;13.90;99.90
6724;DHT22;3399;52.530;13.304;2022-09-09T04:37:22;13.90;99.90
6724;DHT22;3399;52.530;13.304;2022-09-09T04:39:50;13.90;99.90
6724;DHT22;3399;52.530;13.304;2022-09-09T04:42:15;13.90;99.90
6724;DHT22;3399;52.530;13.304;2022-09-09T04:44:43;13.90;99.90
6724;DHT22;3399;52.530;13.304;2022-09-09T04:47:09;13.90;99.90
6724;DHT22;3399;52.530;13.304;2022-09-09T04:49:34;13.90;99.90
6724;DHT22;3399;52.530;13.304;2022-09-09T04:52:01;13.90;99.90
6724;DHT22;3399;52.530;13.304;2022-09-09T04:54:26;13.90;99.90
6724;DHT22;3399;52.530;13.304;2022-09-09T04:56:52;13.90;99.90
6724;DHT22;3399;52.530;13.304;2022-09-09T04:59:18;13.90;99.90
6724;DHT22;3399;52.530;13.304;2022-09-09T05:01:43;13.90;99.90
6724;DHT22;3399;52.530;13.304;2022-09-09T05:04:09;13.90;99.90
6724;DHT22;3399;52.530;13.304;2022-09-09T05:06:34;14.00;99.90
6724;DHT22;3399;52.530;13.304;2022-09-09T05:09:01;14.00;99.90
6724;DHT22;3399;52.530;13.304;2022-09-09T05:11:31;14.00;99.90
6724;DHT22;3399;52.530;13.304;2022-09-09T05:13:57;14.10;99.90
6724;DHT22;3399;52.530;13.304;2022-09-09T05:16:23;14.10;99.90
6724;DHT22;3399;52.530;13.304;2022-09-09T05:18:49;14.10;99.90
6724;DHT22;3399;52.530;13.304;2022-09-09T05:21:17;14.20;99.90
6724;DHT22;3399;52.530;13.304;2022-09-09T05:23:44;14.20;99.90
6724;DHT22;3399;52.530;13.304;2022-09-09T05:26:13;14.20;99.90
6724;DHT22;3399;52.530;13.304;2022-09-09T05:28:39;14.30;99.90
6724;DHT22;3399;52.530;13.304;2022-09-09T05:31:07;14.30;99.90
6724;DHT22;3399;52.530;13.304;2022-09-09T05:33:38;14.30;99.90
6724;DHT22;3399;52.530;13.304;2022-09-09T05:36:07;14.40;99.90
6724;DHT22;3399;52.530;13.304;2022-09-09T05:38:34;14.40;99.90
6724;DHT22;3399;52.530;13.304;2022-09-09T05:41:00;14.50;99.90
6724;DHT22;3399;52.530;13.304;2022-09-09T05:43:27;14.50;99.90
6724;DHT22;3399;52.530;13.304;2022-09-09T05:46:03;14.60;99.90
6724;DHT22;3399;52.530;13.304;2022-09-09T05:48:34;14.60;99.90
6724;DHT22;3399;52.530;13.304;2022-09-09T05:51:00;14.60;99.90
6724;DHT22;3399;52.530;13.304;2022-09-09T05:53:26;14.60;99.90
6724;DHT22;3399;52.530;13.304;2022-09-09T05:56:00;14.60;99.90
6724;DHT22;3399;52.530;13.304;2022-09-09T05:58:26;14.70;99.90
6724;DHT22;3399;52.530;13.304;2022-09-09T06:00:52;14.70;99.90
6724;DHT22;3399;52.530;13.304;2022-09-09T06:03:20;14.80;99.90
6724;DHT22;3399;52.530;13.304;2022-09-09T06:05:57;14.80;99.90
6724;DHT22;3399;52.530;13.304;2022-09-09T06:08:23;14.80;99.90
6724;DHT22;3399;52.530;13.304;2022-09-09T06:10:48;15.00;99.90
6724;DHT22;3399;52.530;13.304;2022-09-09T06:13:14;15.00;99.90
6724;DHT22;3399;52.530;13.304;2022-09-09T06:15:39;15.10;99.90
6724;DHT22;3399;52.530;13.304;2022-09-09T06:18:14;15.10;99.90
6724;DHT22;3399;52.530;13.304;2022-09-09T06:20:43;15.20;99.90
6724;DHT22;3399;52.530;13.304;2022-09-09T06:23:08;15.20;99.90
6724;DHT22;3399;52.530;13.304;2022-09-09T06:25:34;15.30;99.90
6724;DHT22;3399;52.530;13.304;2022-09-09T06:27:59;15.40;99.90
6724;DHT22;3399;52.530;13.304;2022-09-09T06:30:25;15.40;99.90
6724;DHT22;3399;52.530;13.304;2022-09-09T06:32:50;15.50;99.90
6724;DHT22;3399;52.530;13.304;2022-09-09T06:35:16;15.60;99.90
6724;DHT22;3399;52.530;13.304;2022-09-09T06:37:45;15.70;99.90
6724;DHT22;3399;52.530;13.304;2022-09-09T06:40:11;15.70;99.90
6724;DHT22;3399;52.530;13.304;2022-09-09T06:42:36;15.70;99.90
6724;DHT22;3399;52.530;13.304;2022-09-09T06:45:02;15.70;99.90
6724;DHT22;3399;52.530;13.304;2022-09-09T06:47:28;15.70;99.90
6724;DHT22;3399;52.530;13.304;2022-09-09T06:49:53;15.70;99.90
6724;DHT22;3399;52.530;13.304;2022-09-09T06:52:19;15.70;99.90
6724;DHT22;3399;52.530;13.304;2022-09-09T06:54:44;15.70;99.90
6724;DHT22;3399;52.530;13.304;2022-09-09T06:57:10;15.70;99.90
6724;DHT22;3399;52.530;13.304;2022-09-09T06:59:36;15.80;99.90
6724;DHT22;3399;52.530;13.304;2022-09-09T07:02:02;15.80;99.90
6724;DHT22;3399;52.530;13.304;2022-09-09T07:04:28;16.00;99.90
6724;DHT22;3399;52.530;13.304;2022-09-09T07:06:53;16.20;99.90
6724;DHT22;3399;52.530;13.304;2022-09-09T07:09:19;16.40;99.90
6724;DHT22;3399;52.530;13.304;2022-09-09T07:11:48;16.50;99.90
6724;DHT22;3399;52.530;13.304;2022-09-09T07:14:14;16.60;99.90
6724;DHT22;3399;52.530;13.304;2022-09-09T07:16:44;16.70;99.90
6724;DHT22;3399;52.530;13.304;2022-09-09T07:19:11;16.80;99.90
6724;DHT22;3399;52.530;13.304;2022-09-09T07:21:36;17.00;99.90
6724;DHT22;3399;52.530;13.304;2022-09-09T07:24:02;17.20;99.90
6724;DHT22;3399;52.530;13.304;2022-09-09T07:26:30;17.40;99.90
6724;DHT22;3399;52.530;13.304;2022-09-09T07:28:56;17.50;99.90
6724;DHT22;3399;52.530;13.304;2022-09-09T07:31:30;17.60;99.90
6724;DHT22;3399;52.530;13.304;2022-09-09T07:33:56;17.80;99.90
6724;DHT22;3399;52.530;13.304;2022-09-09T07:36:25;18.00;99.90
6724;DHT22;3399;52.530;13.304;2022-09-09T07:38:54;18.20;99.90
6724;DHT22;3399;52.530;13.304;2022-09-09T07:41:25;18.40;99.90
6724;DHT22;3399;52.530;13.304;2022-09-09T07:43:51;18.50;99.90
6724;DHT22;3399;52.530;13.304;2022-09-09T07:46:20;18.70;99.90
6724;DHT22;3399;52.530;13.304;2022-09-09T07:48:47;18.90;99.90
6724;DHT22;3399;52.530;13.304;2022-09-09T07:51:18;19.00;99.90
6724;DHT22;3399;52.530;13.304;2022-09-09T07:53:45;18.90;99.90
6724;DHT22;3399;52.530;13.304;2022-09-09T07:56:13;19.00;99.90
6724;DHT22;3399;52.530;13.304;2022-09-09T07:58:40;19.00;99.90
6724;DHT22;3399;52.530;13.304;2022-09-09T08:01:14;19.00;99.90
6724;DHT22;3399;52.530;13.304;2022-09-09T08:03:41;19.10;99.90
6724;DHT22;3399;52.530;13.304;2022-09-09T08:06:08;19.10;99.90
6724;DHT22;3399;52.530;13.304;2022-09-09T08:08:34;19.10;99.90
6724;DHT22;3399;52.530;13.304;2022-09-09T08:11:06;19.20;99.90
6724;DHT22;3399;52.530;13.304;2022-09-09T08:13:36;19.20;99.90
6724;DHT22;3399;52.530;13.304;2022-09-09T08:16:14;19.40;99.90
6724;DHT22;3399;52.530;13.304;2022-09-09T08:18:40;19.40;99.90
6724;DHT22;3399;52.530;13.304;2022-09-09T08:21:08;19.50;99.90
6724;DHT22;3399;52.530;13.304;2022-09-09T08:23:34;19.60;99.90
6724;DHT22;3399;52.530;13.304;2022-09-09T08:26:05;19.60;99.90
6724;DHT22;3399;52.530;13.304;2022-09-09T08:28:30;19.50;99.90
6724;DHT22;3399;52.530;13.304;2022-09-09T08:31:04;19.50;99.90
6724;DHT22;3399;52.530;13.304;2022-09-09T08:33:29;19.50;99.90
6724;DHT22;3399;52.530;13.304;2022-09-09T08:35:55;19.50;99.90
6724;DHT22;3399;52.530;13.304;2022-09-09T08:38:20;19.60;99.90
6724;DHT22;3399;52.530;13.304;2022-09-09T08:40:49;19.50;99.90
6724;DHT22;3399;52.530;13.304;2022-09-09T08:43:16;19.60;99.90
6724;DHT22;3399;52.530;13.304;2022-09-09T08:45:54;19.70;99.90
6724;DHT22;3399;52.530;13.304;2022-09-09T08:48:52;19.70;99.90
6724;DHT22;3399;52.530;13.304;2022-09-09T08:51:20;19.70;99.90
6724;DHT22;3399;52.530;13.304;2022-09-09T08:53:48;19.60;99.90
6724;DHT22;3399;52.530;13.304;2022-09-09T08:56:18;19.70;99.90
6724;DHT22;3399;52.530;13.304;2022-09-09T08:58:51;19.60;99.90
6724;DHT22;3399;52.530;13.304;2022-09-09T09:01:30;19.60;99.90
6724;DHT22;3399;52.530;13.304;2022-09-09T09:07:23;19.70;99.90
6724;DHT22;3399;52.530;13.304;2022-09-09T09:10:18;19.80;99.90
6724;DHT22;3399;52.530;13.304;2022-09-09T09:12:46;19.80;99.90
6724;DHT22;3399;52.530;13.304;2022-09-09T09:15:24;19.90;99.90
6724;DHT22;3399;52.530;13.304;2022-09-09T09:17:50;19.90;99.90
6724;DHT22;3399;52.530;13.304;2022-09-09T09:20:17;20.00;99.90
6724;DHT22;3399;52.530;13.304;2022-09-09T09:22:52;20.10;99.90
6724;DHT22;3399;52.530;13.304;2022-09-09T09:25:22;20.20;99.90
6724;DHT22;3399;52.530;13.304;2022-09-09T09:27:59;20.40;99.90
6724;DHT22;3399;52.530;13.304;2022-09-09T09:30:42;20.50;99.90
6724;DHT22;3399;52.530;13.304;2022-09-09T09:36:04;20.90;99.90
6724;DHT22;3399;52.530;13.304;2022-09-09T09:38:34;20.90;99.90
6724;DHT22;3399;52.530;13.304;2022-09-09T09:41:00;21.10;99.90
6724;DHT22;3399;52.530;13.304;2022-09-09T09:43:34;21.10;99.90
6724;DHT22;3399;52.530;13.304;2022-09-09T09:46:00;21.10;99.90
6724;DHT22;3399;52.530;13.304;2022-09-09T09:48:28;21.00;99.90
6724;DHT22;3399;52.530;13.304;2022-09-09T09:50:59;21.10;99.90
6724;DHT22;3399;52.530;13.304;2022-09-09T09:56:03;21.10;99.90
6724;DHT22;3399;52.530;13.304;2022-09-09T09:58:49;20.90;99.90
6724;DHT22;3399;52.530;13.304;2022-09-09T10:01:34;20.80;99.90
6724;DHT22;3399;52.530;13.304;2022-09-09T10:04:02;20.90;99.90
6724;DHT22;3399;52.530;13.304;2022-09-09T10:06:32;21.00;99.90
6724;DHT22;3399;52.530;13.304;2022-09-09T10:08:59;21.10;99.90
6724;DHT22;3399;52.530;13.304;2022-09-09T10:12:02;21.20;99.90
6724;DHT22;3399;52.530;13.304;2022-09-09T10:14:51;21.10;99.90
6724;DHT22;3399;52.530;13.304;2022-09-09T10:20:35;21.10;99.90
6724;DHT22;3399;52.530;13.304;2022-09-09T10:24:07;21.30;99.90
6724;DHT22;3399;52.530;13.304;2022-09-09T10:29:28;21.30;99.90
6724;DHT22;3399;52.530;13.304;2022-09-09T10:32:26;21.30;99.90
6724;DHT22;3399;52.530;13.304;2022-09-09T10:35:12;21.40;99.90
6724;DHT22;3399;52.530;13.304;2022-09-09T10:37:59;21.50;99.90
6724;DHT22;3399;52.530;13.304;2022-09-09T10:45:39;21.90;99.90
6724;DHT22;3399;52.530;13.304;2022-09-09T10:51:19;22.10;99.90
6724;DHT22;3399;52.530;13.304;2022-09-09T10:54:15;21.90;99.90
6724;DHT22;3399;52.530;13.304;2022-09-09T10:56:44;21.90;99.90
6724;DHT22;3399;52.530;13.304;2022-09-09T10:59:29;22.10;99.90
6724;DHT22;3399;52.530;13.304;2022-09-09T11:02:03;22.30;99.90
6724;DHT22;3399;52.530;13.304;2022-09-09T11:04:39;22.60;99.90
6724;DHT22;3399;52.530;13.304;2022-09-09T11:07:08;22.70;99.90
6724;DHT22;3399;52.530;13.304;2022-09-09T11:09:41;22.60;99.90
6724;DHT22;3399;52.530;13.304;2022-09-09T11:12:15;22.60;99.90
6724;DHT22;3399;52.530;13.304;2022-09-09T11:14:50;22.70;99.90
6724;DHT22;3399;52.530;13.304;2022-09-09T11:17:20;22.80;99.90
6724;DHT22;3399;52.530;13.304;2022-09-09T11:19:48;22.80;99.90
6724;DHT22;3399;52.530;13.304;2022-09-09T11:22:33;22.90;99.90
6724;DHT22;3399;52.530;13.304;2022-09-09T11:25:08;23.30;99.90
6724;DHT22;3399;52.530;13.304;2022-09-09T11:30:26;23.30;99.90
6724;DHT22;3399;52.530;13.304;2022-09-09T11:33:08;23.60;99.90
6724;DHT22;3399;52.530;13.304;2022-09-09T11:35:56;23.80;99.90
6724;DHT22;3399;52.530;13.304;2022-09-09T11:38:45;24.10;99.90
6724;DHT22;3399;52.530;13.304;2022-09-09T11:41:12;24.20;99.90
6724;DHT22;3399;52.530;13.304;2022-09-09T11:43:45;24.20;99.80
6724;DHT22;3399;52.530;13.304;2022-09-09T11:46:13;24.10;99.80
6724;DHT22;3399;52.530;13.304;2022-09-09T11:48:42;23.90;99.80
6724;DHT22;3399;52.530;13.304;2022-09-09T11:51:24;24.00;99.90
6724;DHT22;3399;52.530;13.304;2022-09-09T11:53:52;24.10;99.60
6724;DHT22;3399;52.530;13.304;2022-09-09T11:56:30;24.20;99.30
6724;DHT22;3399;52.530;13.304;2022-09-09T11:58:57;24.40;98.90
6724;DHT22;3399;52.530;13.304;2022-09-09T12:01:34;24.80;97.20
6724;DHT22;3399;52.530;13.304;2022-09-09T12:04:14;25.20;96.20
6724;DHT22;3399;52.530;13.304;2022-09-09T12:06:44;25.50;96.00
6724;DHT22;3399;52.530;13.304;2022-09-09T12:09:22;25.80;95.20
6724;DHT22;3399;52.530;13.304;2022-09-09T12:11:50;25.90;94.70
6724;DHT22;3399;52.530;13.304;2022-09-09T12:14:36;25.90;95.60
6724;DHT22;3399;52.530;13.304;2022-09-09T12:17:24;26.20;93.70
6724;DHT22;3399;52.530;13.304;2022-09-09T12:20:08;26.60;93.30
6724;DHT22;3399;52.530;13.304;2022-09-09T12:23:02;26.90;91.80
6724;DHT22;3399;52.530;13.304;2022-09-09T12:25:57;26.70;92.20
6724;DHT22;3399;52.530;13.304;2022-09-09T12:28:45;26.60;92.50
6724;DHT22;3399;52.530;13.304;2022-09-09T12:33:51;26.40;93.10
6724;DHT22;3399;52.530;13.304;2022-09-09T12:36:21;26.30;92.00
6724;DHT22;3399;52.530;13.304;2022-09-09T12:38:47;26.00;92.40
6724;DHT22;3399;52.530;13.304;2022-09-09T12:41:21;25.90;92.40
6724;DHT22;3399;52.530;13.304;2022-09-09T12:43:46;25.80;91.70
6724;DHT22;3399;52.530;13.304;2022-09-09T12:46:29;25.80;92.40
6724;DHT22;3399;52.530;13.304;2022-09-09T12:48:57;25.90;92.40
6724;DHT22;3399;52.530;13.304;2022-09-09T12:51:29;25.90;91.80
6724;DHT22;3399;52.530;13.304;2022-09-09T12:53:56;26.10;91.60
6724;DHT22;3399;52.530;13.304;2022-09-09T12:56:25;26.40;90.60
6724;DHT22;3399;52.530;13.304;2022-09-09T12:58:56;26.50;90.90
6724;DHT22;3399;52.530;13.304;2022-09-09T13:01:32;26.10;90.10
6724;DHT22;3399;52.530;13.304;2022-09-09T13:03:59;25.70;89.60
6724;DHT22;3399;52.530;13.304;2022-09-09T13:06:27;25.30;89.70
6724;DHT22;3399;52.530;13.304;2022-09-09T13:08:54;25.00;90.50
6724;DHT22;3399;52.530;13.304;2022-09-09T13:11:29;24.70;90.40
6724;DHT22;3399;52.530;13.304;2022-09-09T13:13:57;24.60;91.00
6724;DHT22;3399;52.530;13.304;2022-09-09T13:16:30;24.40;91.70
6724;DHT22;3399;52.530;13.304;2022-09-09T13:19:10;24.40;91.90
6724;DHT22;3399;52.530;13.304;2022-09-09T13:21:39;24.30;91.40
6724;DHT22;3399;52.530;13.304;2022-09-09T13:24:07;24.20;92.10
6724;DHT22;3399;52.530;13.304;2022-09-09T13:26:54;24.20;92.30
6724;DHT22;3399;52.530;13.304;2022-09-09T13:29:21;24.00;92.60
6724;DHT22;3399;52.530;13.304;2022-09-09T13:31:53;24.00;92.40
6724;DHT22;3399;52.530;13.304;2022-09-09T13:34:27;23.80;92.70
6724;DHT22;3399;52.530;13.304;2022-09-09T13:36:59;23.70;93.20
6724;DHT22;3399;52.530;13.304;2022-09-09T13:39:28;23.60;93.40
6724;DHT22;3399;52.530;13.304;2022-09-09T13:41:53;23.60;93.30
6724;DHT22;3399;52.530;13.304;2022-09-09T13:44:29;23.50;94.30
6724;DHT22;3399;52.530;13.304;2022-09-09T13:47:04;23.50;94.90
6724;DHT22;3399;52.530;13.304;2022-09-09T13:49:31;23.70;94.80
6724;DHT22;3399;52.530;13.304;2022-09-09T13:52:16;24.00;94.40
6724;DHT22;3399;52.530;13.304;2022-09-09T13:54:42;24.50;93.60
6724;DHT22;3399;52.530;13.304;2022-09-09T13:57:24;25.00;92.80
6724;DHT22;3399;52.530;13.304;2022-09-09T13:59:51;25.50;91.80
6724;DHT22;3399;52.530;13.304;2022-09-09T14:02:17;26.30;91.50
6724;DHT22;3399;52.530;13.304;2022-09-09T14:04:43;27.40;89.90
6724;DHT22;3399;52.530;13.304;2022-09-09T14:07:12;28.90;85.90
6724;DHT22;3399;52.530;13.304;2022-09-09T14:09:38;30.20;80.90
6724;DHT22;3399;52.530;13.304;2022-09-09T14:12:04;30.80;76.60
6724;DHT22;3399;52.530;13.304;2022-09-09T14:14:30;30.30;73.90
6724;DHT22;3399;52.530;13.304;2022-09-09T14:16:56;29.90;72.50
6724;DHT22;3399;52.530;13.304;2022-09-09T14:19:21;29.30;75.00
6724;DHT22;3399;52.530;13.304;2022-09-09T14:21:47;28.90;74.40
6724;DHT22;3399;52.530;13.304;2022-09-09T14:24:12;28.50;76.80
6724;DHT22;3399;52.530;13.304;2022-09-09T14:26:38;28.30;76.50
6724;DHT22;3399;52.530;13.304;2022-09-09T14:29:03;28.30;77.30
6724;DHT22;3399;52.530;13.304;2022-09-09T14:31:29;28.00;76.60
6724;DHT22;3399;52.530;13.304;2022-09-09T14:33:54;27.50;76.70
6724;DHT22;3399;52.530;13.304;2022-09-09T14:36:20;27.70;76.60
6724;DHT22;3399;52.530;13.304;2022-09-09T14:38:46;28.20;76.00
6724;DHT22;3399;52.530;13.304;2022-09-09T14:41:14;29.20;74.60
6724;DHT22;3399;52.530;13.304;2022-09-09T14:43:42;29.70;71.80
6724;DHT22;3399;52.530;13.304;2022-09-09T14:46:10;29.50;71.00
6724;DHT22;3399;52.530;13.304;2022-09-09T14:48:36;29.00;71.70
6724;DHT22;3399;52.530;13.304;2022-09-09T14:53:31;27.60;74.80
6724;DHT22;3399;52.530;13.304;2022-09-09T14:56:08;26.80;77.50
6724;DHT22;3399;52.530;13.304;2022-09-09T14:58:34;26.30;78.80
6724;DHT22;3399;52.530;13.304;2022-09-09T15:01:09;26.00;78.20
6724;DHT22;3399;52.530;13.304;2022-09-09T15:03:36;25.70;79.60
6724;DHT22;3399;52.530;13.304;2022-09-09T15:06:09;25.30;80.60
6724;DHT22;3399;52.530;13.304;2022-09-09T15:08:36;25.10;82.30
6724;DHT22;3399;52.530;13.304;2022-09-09T15:11:03;25.10;82.40
6724;DHT22;3399;52.530;13.304;2022-09-09T15:13:29;25.30;82.70
6724;DHT22;3399;52.530;13.304;2022-09-09T15:15:55;25.50;83.90
6724;DHT22;3399;52.530;13.304;2022-09-09T15:18:21;26.10;82.20
6724;DHT22;3399;52.530;13.304;2022-09-09T15:20:46;26.80;81.20
6724;DHT22;3399;52.530;13.304;2022-09-09T15:23:13;27.70;78.40
6724;DHT22;3399;52.530;13.304;2022-09-09T15:25:50;28.60;76.20
6724;DHT22;3399;52.530;13.304;2022-09-09T15:28:16;28.80;74.80
6724;DHT22;3399;52.530;13.304;2022-09-09T15:30:41;28.20;75.70
6724;DHT22;3399;52.530;13.304;2022-09-09T15:33:08;28.00;78.00
6724;DHT22;3399;52.530;13.304;2022-09-09T15:35:33;28.10;77.50
6724;DHT22;3399;52.530;13.304;2022-09-09T15:38:02;28.10;77.30
6724;DHT22;3399;52.530;13.304;2022-09-09T15:40:28;28.00;75.90
6724;DHT22;3399;52.530;13.304;2022-09-09T15:42:53;27.80;77.40
6724;DHT22;3399;52.530;13.304;2022-09-09T15:45:19;27.90;78.10
6724;DHT22;3399;52.530;13.304;2022-09-09T15:47:47;28.10;77.40
6724;DHT22;3399;52.530;13.304;2022-09-09T15:50:12;28.30;75.90
6724;DHT22;3399;52.530;13.304;2022-09-09T15:52:38;28.20;75.50
6724;DHT22;3399;52.530;13.304;2022-09-09T15:55:04;28.00;75.10
6724;DHT22;3399;52.530;13.304;2022-09-09T15:57:29;27.70;75.80
6724;DHT22;3399;52.530;13.304;2022-09-09T15:59:55;27.10;76.90
6724;DHT22;3399;52.530;13.304;2022-09-09T16:02:20;26.90;78.90
6724;DHT22;3399;52.530;13.304;2022-09-09T16:04:46;26.30;78.90
6724;DHT22;3399;52.530;13.304;2022-09-09T16:07:15;26.00;81.70
6724;DHT22;3399;52.530;13.304;2022-09-09T16:09:41;25.80;82.40
6724;DHT22;3399;52.530;13.304;2022-09-09T16:12:09;25.60;82.10
6724;DHT22;3399;52.530;13.304;2022-09-09T16:14:38;25.40;84.90
6724;DHT22;3399;52.530;13.304;2022-09-09T16:17:05;25.30;85.70
6724;DHT22;3399;52.530;13.304;2022-09-09T16:19:31;25.20;88.30
6724;DHT22;3399;52.530;13.304;2022-09-09T16:21:56;25.00;88.70
6724;DHT22;3399;52.530;13.304;2022-09-09T16:24:22;24.90;90.00
6724;DHT22;3399;52.530;13.304;2022-09-09T16:26:50;24.70;90.60
6724;DHT22;3399;52.530;13.304;2022-09-09T16:29:17;24.60;90.60
6724;DHT22;3399;52.530;13.304;2022-09-09T16:31:44;24.50;90.50
6724;DHT22;3399;52.530;13.304;2022-09-09T16:34:10;24.40;92.00
6724;DHT22;3399;52.530;13.304;2022-09-09T16:36:37;24.30;92.70
6724;DHT22;3399;52.530;13.304;2022-09-09T16:39:06;24.20;92.60
6724;DHT22;3399;52.530;13.304;2022-09-09T16:41:33;24.00;91.30
6724;DHT22;3399;52.530;13.304;2022-09-09T16:44:04;23.80;91.00
6724;DHT22;3399;52.530;13.304;2022-09-09T16:46:31;23.80;92.30
6724;DHT22;3399;52.530;13.304;2022-09-09T16:48:59;23.80;93.30
6724;DHT22;3399;52.530;13.304;2022-09-09T16:51:31;23.70;93.00
6724;DHT22;3399;52.530;13.304;2022-09-09T16:54:02;23.60;93.00
6724;DHT22;3399;52.530;13.304;2022-09-09T16:56:29;23.60;93.70
6724;DHT22;3399;52.530;13.304;2022-09-09T16:58:57;23.50;94.60
6724;DHT22;3399;52.530;13.304;2022-09-09T17:01:25;23.40;95.20
6724;DHT22;3399;52.530;13.304;2022-09-09T17:03:59;23.30;94.30
6724;DHT22;3399;52.530;13.304;2022-09-09T17:06:26;23.10;95.70
6724;DHT22;3399;52.530;13.304;2022-09-09T17:08:56;22.90;96.60
6724;DHT22;3399;52.530;13.304;2022-09-09T17:11:22;22.70;96.70
6724;DHT22;3399;52.530;13.304;2022-09-09T17:13:49;22.50;97.20
6724;DHT22;3399;52.530;13.304;2022-09-09T17:16:17;22.40;97.70